Time;durP1;ratioP1;P1;durP2;ratioP2;P2;SDS_P1;SDS_P2;PMS_P1;PMS_P2;Temp;Humidity;BMP_temperature;BMP_pressure;BME280_temperature;BME280_humidity;BME280_pressure;Samples;Min_cycle;Max_cycle;Signal;HPM_P1;HPM_P2
2023/09/25 00:02:09;;;;;;;7.43;2.67;;;;;;;12.85;83.10;101940.56;5370602;27;20082;-85
2023/09/25 00:04:40;;;;;;;2.40;1.70;;;;;;;12.80;83.38;101939.72;5371077;27;20022;-83
2023/09/25 00:07:11;;;;;;;5.30;2.27;;;;;;;12.75;84.08;101936.22;5352341;27;20035;-83
2023/09/25 00:09:42;;;;;;;3.50;1.90;;;;;;;12.66;84.17;101937.16;5370412;27;20172;-84
2023/09/25 00:12:14;;;;;;;9.83;2.53;;;;;;;12.67;83.33;101946.75;5370908;27;20115;-84
2023/09/25 00:14:45;;;;;;;2.23;2.00;;;;;;;12.57;83.55;101934.53;5370571;27;20030;-84
2023/09/25 00:17:17;;;;;;;4.67;2.37;;;;;;;12.50;84.16;101938.94;5370331;27;20034;-85
2023/09/25 00:19:48;;;;;;;3.53;2.40;;;;;;;12.50;83.71;101935.44;5352524;27;20037;-84
2023/09/25 00:22:20;;;;;;;4.33;2.00;;;;;;;12.51;83.52;101947.63;5371334;27;20026;-84
2023/09/25 00:24:51;;;;;;;3.53;1.90;;;;;;;12.54;83.67;101943.28;5370799;27;20035;-84
2023/09/25 00:27:24;;;;;;;4.27;2.40;;;;;;;12.49;84.34;101946.78;5352646;27;20026;-83
2023/09/25 00:29:55;;;;;;;3.67;1.90;;;;;;;12.39;84.46;101945.94;5370387;27;20103;-84
2023/09/25 00:32:27;;;;;;;5.90;2.47;;;;;;;12.44;84.66;101946.78;5368984;27;20022;-82
2023/09/25 00:34:58;;;;;;;4.22;2.47;;;;;;;12.38;84.71;101944.16;5392694;27;20083;-81
2023/09/25 00:37:30;;;;;;;3.53;2.13;;;;;;;12.29;84.88;101946.81;5359646;27;20031;-83
2023/09/25 00:40:12;;;;;;;4.33;2.50;;;;;;;12.26;85.23;101939.84;5372037;27;20060;-82
2023/09/25 00:42:54;;;;;;;5.82;2.67;;;;;;;12.24;85.25;101952.06;5370603;27;20035;-84
2023/09/25 00:45:25;;;;;;;4.63;2.45;;;;;;;12.24;84.93;101949.44;5371330;27;20460;-84
2023/09/25 00:47:57;;;;;;;5.10;2.17;;;;;;;12.25;85.13;101955.53;5370486;27;20058;-85
2023/09/25 00:50:31;;;;;;;4.50;2.23;;;;;;;12.22;85.23;101961.66;5369765;27;20055;-82
2023/09/25 00:53:09;;;;;;;4.63;2.28;;;;;;;12.13;85.80;101953.81;5371252;27;20022;-82
2023/09/25 00:55:40;;;;;;;2.80;2.05;;;;;;;12.06;86.28;101952.94;5370114;27;20043;-82
2023/09/25 00:58:11;;;;;;;5.80;2.10;;;;;;;12.13;86.45;101951.19;5370479;27;20027;-83
2023/09/25 01:00:43;;;;;;;3.93;2.70;;;;;;;12.04;86.80;101944.22;5369827;27;20086;-82
2023/09/25 01:03:14;;;;;;;3.20;2.13;;;;;;;11.98;87.31;101954.69;5369933;27;20037;-84
2023/09/25 01:05:46;;;;;;;4.77;2.10;;;;;;;11.87;86.80;101952.03;5370110;27;20054;-83
2023/09/25 01:08:17;;;;;;;5.83;2.73;;;;;;;11.88;86.82;101948.53;5351126;27;20035;-83
2023/09/25 01:10:49;;;;;;;5.60;2.73;;;;;;;11.81;87.15;101952.88;5369645;27;20069;-83
2023/09/25 01:13:21;;;;;;;5.47;2.40;;;;;;;11.93;87.67;101961.63;5369594;27;20023;-83
2023/09/25 01:15:52;;;;;;;3.70;2.47;;;;;;;11.88;86.98;101958.13;5369432;27;20031;-82
2023/09/25 01:18:23;;;;;;;6.90;2.47;;;;;;;11.89;86.79;101965.09;5369221;27;20031;-82
2023/09/25 01:20:55;;;;;;;7.37;2.20;;;;;;;11.81;87.11;101962.47;5350845;27;20465;-83
2023/09/25 01:23:26;;;;;;;10.07;3.67;;;;;;;11.79;87.00;101953.78;5350729;27;20019;-82
2023/09/25 01:25:58;;;;;;;4.37;2.33;;;;;;;11.75;87.69;101944.16;5369431;27;20156;-84
2023/09/25 01:28:29;;;;;;;6.10;2.50;;;;;;;11.68;88.34;101953.75;5369530;27;20031;-82
2023/09/25 01:31:01;;;;;;;4.93;2.10;;;;;;;11.62;88.75;101951.13;5369740;27;20103;-83
2023/09/25 01:33:32;;;;;;;3.63;2.27;;;;;;;11.63;88.42;101953.72;5369426;27;20042;-81
2023/09/25 01:36:04;;;;;;;3.57;2.17;;;;;;;11.65;89.32;101953.75;5368933;27;20359;-82
2023/09/25 01:38:35;;;;;;;4.63;2.17;;;;;;;11.57;88.76;101945.88;5368800;27;20566;-82
2023/09/25 01:41:07;;;;;;;6.17;2.53;;;;;;;11.49;89.20;101945.00;5371920;27;20122;-83
2023/09/25 01:43:38;;;;;;;10.87;2.40;;;;;;;11.55;89.36;101945.03;5368715;27;20035;-84
2023/09/25 01:46:09;;;;;;;5.70;2.30;;;;;;;11.41;89.68;101944.97;5350382;27;20047;-82
2023/09/25 01:48:41;;;;;;;5.23;2.27;;;;;;;11.41;90.00;101941.50;5368266;27;20033;-82
2023/09/25 01:51:12;;;;;;;4.30;2.20;;;;;;;11.41;89.57;101944.13;5367897;27;20034;-81
2023/09/25 01:53:46;;;;;;;3.87;2.17;;;;;;;11.28;89.86;101945.81;5368606;27;20035;-82
2023/09/25 01:56:17;;;;;;;4.97;2.35;;;;;;;11.30;89.99;101942.38;5367782;27;20567;-81
2023/09/25 01:58:48;;;;;;;4.53;2.27;;;;;;;11.25;90.06;101937.97;5367939;27;20119;-81
2023/09/25 02:01:20;;;;;;;5.20;2.80;;;;;;;11.30;89.84;101939.75;5367693;27;20109;-82
2023/09/25 02:03:52;;;;;;;5.07;3.10;;;;;;;11.26;90.63;101931.91;5368313;27;20109;-82
2023/09/25 02:06:23;;;;;;;6.93;2.70;;;;;;;11.22;90.55;101936.25;5367602;27;20118;-81
2023/09/25 02:08:54;;;;;;;5.07;2.53;;;;;;;11.20;90.51;101932.75;5368203;27;20144;-82
2023/09/25 02:11:26;;;;;;;4.47;2.73;;;;;;;11.10;91.05;101933.59;5367765;27;20034;-81
2023/09/25 02:13:57;;;;;;;6.60;2.57;;;;;;;11.10;91.63;101936.19;5371564;27;20031;-83
2023/09/25 02:16:29;;;;;;;5.80;2.63;;;;;;;11.11;91.62;101932.75;5371930;27;20023;-81
2023/09/25 02:19:00;;;;;;;4.03;2.40;;;;;;;11.12;91.33;101934.47;5371819;27;20022;-83
2023/09/25 02:21:31;;;;;;;4.07;2.30;;;;;;;11.06;91.86;101922.28;5372184;27;20478;-82
2023/09/25 02:24:03;;;;;;;5.17;3.03;;;;;;;11.04;91.45;101923.13;5371668;27;20134;-81
2023/09/25 02:26:34;;;;;;;5.50;2.77;;;;;;;11.03;91.42;101922.28;5371793;27;20033;-81
2023/09/25 02:29:06;;;;;;;3.97;2.27;;;;;;;11.04;91.71;101925.75;5371438;27;20075;-81
2023/09/25 02:31:37;;;;;;;3.83;2.17;;;;;;;11.03;91.21;101935.31;5371510;27;20537;-81
2023/09/25 02:34:14;;;;;;;6.07;2.73;;;;;;;11.06;90.89;101931.81;5352680;27;20114;-82
2023/09/25 02:36:45;;;;;;;5.28;2.50;;;;;;;11.04;91.27;101936.19;5371326;27;20031;-83
2023/09/25 02:39:17;;;;;;;3.17;2.30;;;;;;;11.02;91.50;101930.09;5371411;27;20027;-83
2023/09/25 02:41:48;;;;;;;6.27;2.63;;;;;;;10.97;91.83;101934.44;5371369;27;20031;-82
2023/09/25 02:44:19;;;;;;;5.10;2.30;;;;;;;10.95;91.22;101931.81;5372072;27;20112;-81
2023/09/25 02:46:51;;;;;;;4.87;2.77;;;;;;;10.99;91.59;101930.06;5372352;27;20456;-83
2023/09/25 02:49:22;;;;;;;5.53;2.77;;;;;;;10.99;91.36;101927.47;5371907;27;20064;-83
2023/09/25 02:51:54;;;;;;;4.63;2.77;;;;;;;10.92;91.38;101927.44;5371211;27;20023;-83
2023/09/25 02:54:26;;;;;;;4.03;2.53;;;;;;;10.87;91.57;101926.56;5371643;27;20033;-83
2023/09/25 02:56:57;;;;;;;9.25;2.58;;;;;;;10.88;91.98;101925.69;5371256;27;20051;-82
2023/09/25 02:59:28;;;;;;;3.70;2.40;;;;;;;10.85;92.45;101925.69;5370653;27;20042;-82
2023/09/25 03:02:02;;;;;;;3.50;2.57;;;;;;;10.85;92.36;101924.78;5352496;27;20109;-84
2023/09/25 03:04:33;;;;;;;3.83;2.47;;;;;;;10.79;92.29;101919.53;5370906;27;20485;-82
2023/09/25 03:07:04;;;;;;;3.80;2.40;;;;;;;10.80;92.32;101922.16;5352306;27;20079;-82
2023/09/25 03:09:36;;;;;;;5.97;2.40;;;;;;;10.77;93.13;101924.78;5370744;27;20481;-83
2023/09/25 03:12:07;;;;;;;4.93;2.90;;;;;;;10.72;92.96;101929.06;5371332;27;20033;-82
2023/09/25 03:14:39;;;;;;;6.27;2.60;;;;;;;10.81;92.10;101930.88;5371598;27;20038;-81
2023/09/25 03:17:10;;;;;;;5.27;2.50;;;;;;;10.80;92.15;101927.38;5373954;27;20083;-81
2023/09/25 03:19:42;;;;;;;9.93;2.90;;;;;;;10.86;91.52;101926.53;5391452;27;20055;-83
2023/09/25 03:22:13;;;;;;;5.80;2.30;;;;;;;10.92;90.84;101927.44;5368018;27;20034;-82
2023/09/25 03:24:44;;;;;;;8.97;2.83;;;;;;;10.98;90.20;101923.09;5379016;27;20031;-84
2023/09/25 03:27:19;;;;;;;5.40;2.60;;;;;;;11.05;89.57;101928.34;5373297;27;20027;-82
2023/09/25 03:29:50;;;;;;;6.60;2.58;;;;;;;11.06;89.34;101932.72;5373673;27;20034;-83
2023/09/25 03:32:22;;;;;;;3.27;2.23;;;;;;;11.01;89.59;101928.34;5376275;27;20034;-82
2023/09/25 03:34:53;;;;;;;8.30;2.70;;;;;;;11.03;89.61;101929.19;5374737;27;20025;-82
2023/09/25 03:37:24;;;;;;;7.00;2.50;;;;;;;11.04;89.20;101930.97;5374082;27;20110;-81
2023/09/25 03:39:56;;;;;;;3.90;2.27;;;;;;;11.05;89.20;101930.97;5371918;27;20109;-82
2023/09/25 03:42:27;;;;;;;4.77;2.53;;;;;;;11.07;88.61;101930.97;5371018;27;20537;-82
2023/09/25 03:44:58;;;;;;;4.33;3.03;;;;;;;11.09;88.55;101931.84;5371077;27;20046;-82
2023/09/25 03:47:30;;;;;;;3.97;2.47;;;;;;;11.09;88.97;101929.22;5370374;27;20034;-82
2023/09/25 03:50:04;;;;;;;4.90;2.90;;;;;;;11.10;88.89;101933.59;5352056;27;20127;-81
2023/09/25 03:52:36;;;;;;;6.57;2.60;;;;;;;11.09;88.85;101924.00;5370367;27;20027;-82
2023/09/25 03:55:08;;;;;;;4.57;2.50;;;;;;;11.10;88.65;101933.59;5370922;27;20033;-85
2023/09/25 03:57:40;;;;;;;3.80;2.45;;;;;;;11.12;87.88;101931.84;5371443;27;20466;-83
2023/09/25 04:00:11;;;;;;;6.13;2.83;;;;;;;11.10;88.33;101930.97;5352501;27;20110;-82
2023/09/25 04:02:43;;;;;;;5.10;2.95;;;;;;;11.16;87.26;101936.22;5352484;27;20045;-83
2023/09/25 04:05:14;;;;;;;4.67;2.50;;;;;;;11.15;87.93;101938.84;5373038;27;20106;-82
2023/09/25 04:07:46;;;;;;;5.00;2.73;;;;;;;11.11;88.15;101938.81;5371033;27;20122;-82
2023/09/25 04:10:18;;;;;;;7.10;2.80;;;;;;;11.13;88.20;101941.44;5354883;27;20054;-81
2023/09/25 04:12:50;;;;;;;5.07;2.92;;;;;;;11.18;87.45;101934.50;5382311;27;20038;-81
2023/09/25 04:15:25;;;;;;;7.93;3.57;;;;;;;11.17;87.45;101942.31;5382997;27;20031;-80
2023/09/25 04:17:57;;;;;;;6.10;3.15;;;;;;;11.17;87.22;101948.38;5382689;27;20045;-82
2023/09/25 04:20:31;;;;;;;6.80;3.42;;;;;;;11.18;87.44;101944.06;5381838;27;20039;-80
2023/09/25 04:23:03;;;;;;;6.40;2.80;;;;;;;11.16;87.21;101937.94;5363555;27;20035;-83
2023/09/25 04:25:35;;;;;;;3.80;2.43;;;;;;;11.17;87.23;101937.09;5375239;27;20461;-83
2023/09/25 04:28:06;;;;;;;3.27;2.10;;;;;;;11.16;87.13;101935.34;5371668;27;20375;-83
2023/09/25 04:30:38;;;;;;;9.93;3.87;;;;;;;11.17;87.18;101939.69;5352104;27;20095;-84
2023/09/25 04:33:09;;;;;;;5.13;2.80;;;;;;;11.18;86.92;101944.06;5370825;27;20412;-83
2023/09/25 04:35:40;;;;;;;6.43;2.90;;;;;;;11.20;86.72;101947.53;5370143;27;20041;-83
2023/09/25 04:38:12;;;;;;;6.63;2.67;;;;;;;11.20;87.20;101945.78;5370433;27;20065;-82
2023/09/25 04:40:46;;;;;;;4.80;2.83;;;;;;;11.14;86.48;101948.41;5371062;27;20474;-82
2023/09/25 04:43:18;;;;;;;4.35;2.30;;;;;;;11.11;86.96;101948.41;5370445;27;20034;-83
2023/09/25 04:45:51;;;;;;;5.73;3.63;;;;;;;11.11;87.18;101951.88;5369778;27;20419;-82
2023/09/25 04:48:23;;;;;;;5.53;3.17;;;;;;;11.08;87.75;101949.25;5370733;27;20045;-83
2023/09/25 04:50:54;;;;;;;5.83;2.70;;;;;;;11.06;87.29;101950.97;5369425;27;20225;-83
2023/09/25 04:53:25;;;;;;;6.63;2.87;;;;;;;11.10;87.44;101954.47;5350961;27;20050;-83
2023/09/25 04:55:57;;;;;;;3.77;2.70;;;;;;;11.10;87.57;101957.09;5351048;27;20069;-82
2023/09/25 04:58:28;;;;;;;4.87;2.60;;;;;;;11.07;87.12;101951.84;5351658;27;20114;-81
2023/09/25 05:00:59;;;;;;;4.47;2.70;;;;;;;11.12;86.59;101955.34;5369512;27;20373;-80
2023/09/25 05:03:31;;;;;;;6.47;2.70;;;;;;;11.10;86.66;101957.94;5351175;27;20034;-82
2023/09/25 05:06:02;;;;;;;11.43;3.10;;;;;;;11.09;86.61;101956.22;5351857;27;20107;-82
2023/09/25 05:08:34;;;;;;;5.17;2.80;;;;;;;11.05;86.74;101953.59;5368575;27;20110;-83
2023/09/25 05:11:05;;;;;;;4.53;2.80;;;;;;;11.06;86.74;101960.53;5349951;27;20087;-79
2023/09/25 05:13:37;;;;;;;5.33;2.70;;;;;;;11.06;86.44;101956.19;5350373;27;20030;-83
2023/09/25 05:16:08;;;;;;;4.67;2.77;;;;;;;11.05;86.86;101958.81;5369168;27;20023;-83
2023/09/25 05:18:39;;;;;;;4.83;2.70;;;;;;;11.10;86.41;101954.47;5369726;27;20031;-83
2023/09/25 05:21:11;;;;;;;6.37;3.00;;;;;;;11.04;86.51;101962.28;5371360;27;20054;-84
2023/09/25 05:23:42;;;;;;;3.07;2.40;;;;;;;11.01;86.68;101960.53;5361573;27;20022;-82
2023/09/25 05:26:14;;;;;;;5.73;2.87;;;;;;;10.99;86.92;101964.00;5391343;27;20034;-82
2023/09/25 05:28:45;;;;;;;6.03;2.47;;;;;;;10.96;87.28;101967.44;5390494;27;20026;-84
2023/09/25 05:31:16;;;;;;;4.30;2.67;;;;;;;10.89;87.97;101963.09;5389126;27;20064;-82
2023/09/25 05:33:48;;;;;;;8.37;3.20;;;;;;;10.94;87.51;101962.22;5375525;27;20064;-82
2023/09/25 05:36:20;;;;;;;4.67;2.70;;;;;;;10.96;87.33;101964.84;5375538;27;20038;-81
2023/09/25 05:38:55;;;;;;;6.95;2.78;;;;;;;11.01;86.70;101967.47;5374185;27;20031;-81
2023/09/25 05:41:27;;;;;;;3.92;2.75;;;;;;;10.98;86.96;101964.84;5351480;27;20026;-81
2023/09/25 05:43:58;;;;;;;7.72;2.78;;;;;;;10.97;87.21;101968.34;5369723;27;20091;-85
2023/09/25 05:46:30;;;;;;;6.20;2.67;;;;;;;11.03;86.46;101973.56;5369238;27;20111;-83
2023/09/25 05:49:01;;;;;;;4.80;2.77;;;;;;;11.03;86.79;101969.25;5372637;27;20038;-85
2023/09/25 05:51:33;;;;;;;11.70;2.53;;;;;;;11.03;86.58;101973.56;5373084;27;20063;-84
2023/09/25 05:54:05;;;;;;;4.38;2.72;;;;;;;11.06;86.44;101973.56;5373087;27;20081;-81
2023/09/25 05:56:36;;;;;;;4.70;3.23;;;;;;;11.12;85.86;101974.50;5372885;27;20076;-84
2023/09/25 05:59:08;;;;;;;4.37;2.80;;;;;;;11.19;85.70;101969.28;5372006;27;20023;-83
2023/09/25 06:01:39;;;;;;;8.85;2.90;;;;;;;11.23;85.28;101973.66;5373185;27;20138;-81
2023/09/25 06:04:12;;;;;;;8.43;3.40;;;;;;;11.28;85.01;101983.22;5365285;27;20170;-82
2023/09/25 06:06:43;;;;;;;6.22;2.60;;;;;;;11.34;84.70;101985.00;5397094;27;20015;-83
2023/09/25 06:09:15;;;;;;;6.83;2.90;;;;;;;11.37;84.33;101978.94;5383432;27;20114;-83
2023/09/25 06:11:48;;;;;;;6.45;2.42;;;;;;;11.43;84.27;101981.53;5374056;27;20018;-81
2023/09/25 06:14:21;;;;;;;8.30;3.03;;;;;;;11.49;83.99;101982.44;5372220;27;20478;-83
2023/09/25 06:16:55;;;;;;;5.32;2.67;;;;;;;11.57;83.24;101987.66;5372249;27;20091;-81
2023/09/25 06:19:26;;;;;;;7.63;3.30;;;;;;;11.60;83.59;101985.06;5372540;27;20406;-82
2023/09/25 06:21:58;;;;;;;6.23;2.70;;;;;;;11.65;82.83;101982.47;5371938;27;20033;-81
2023/09/25 06:24:29;;;;;;;5.00;3.20;;;;;;;11.68;83.14;101978.13;5371906;27;20106;-81
2023/09/25 06:27:00;;;;;;;6.03;2.90;;;;;;;11.75;82.82;101983.34;5372314;27;20026;-77
2023/09/25 06:29:32;;;;;;;7.40;2.87;;;;;;;11.78;83.34;101988.59;5371429;27;20039;-78
2023/09/25 06:32:03;;;;;;;4.23;2.70;;;;;;;11.84;83.12;101986.00;5352923;27;20121;-77
2023/09/25 06:34:35;;;;;;;5.63;2.83;;;;;;;11.89;83.10;101984.25;5371677;27;20026;-78
2023/09/25 06:37:06;;;;;;;7.00;2.80;;;;;;;11.99;82.24;101990.38;5371311;27;20023;-76
2023/09/25 06:39:38;;;;;;;5.90;2.87;;;;;;;12.06;82.20;101988.63;5371280;27;20036;-79
2023/09/25 06:42:09;;;;;;;5.47;3.33;;;;;;;12.13;81.61;101986.03;5371342;27;20035;-78
2023/09/25 06:44:40;;;;;;;5.53;3.10;;;;;;;12.20;81.63;101990.41;5352862;27;20022;-78
2023/09/25 06:47:12;;;;;;;4.33;2.80;;;;;;;12.26;80.71;101991.28;5371395;27;20468;-79
2023/09/25 06:49:43;;;;;;;8.03;3.47;;;;;;;12.31;81.05;101990.38;5371063;27;20031;-79
2023/09/25 06:52:15;;;;;;;5.03;3.00;;;;;;;12.38;79.15;101986.00;5371092;27;20057;-79
2023/09/25 06:54:46;;;;;;;6.60;3.72;;;;;;;12.46;79.49;101989.50;5354183;27;20027;-79
2023/09/25 06:57:18;;;;;;;6.07;3.20;;;;;;;12.56;78.97;101990.38;5377949;27;20054;-78
2023/09/25 06:59:49;;;;;;;6.40;3.30;;;;;;;12.68;77.56;101989.47;5374535;27;20077;-79
2023/09/25 07:02:20;;;;;;;6.93;2.53;;;;;;;12.78;77.79;101996.41;5370813;27;20031;-80
2023/09/25 07:04:52;;;;;;;6.73;3.33;;;;;;;12.88;76.50;101992.91;5352833;27;20026;-79
2023/09/25 07:07:23;;;;;;;6.67;3.50;;;;;;;13.03;75.77;101989.34;5370225;27;20035;-78
2023/09/25 07:09:55;;;;;;;5.90;2.60;;;;;;;13.18;75.11;101991.03;5370035;27;20114;-77
2023/09/25 07:12:28;;;;;;;5.05;2.60;;;;;;;13.31;74.09;101987.50;5351953;27;20372;-78
2023/09/25 07:15:01;;;;;;;;;;;;;;;13.47;74.62;101992.69;5370747;27;20077;-77
2023/09/25 07:17:34;;;;;;;6.38;3.08;;;;;;;13.57;73.31;101989.16;5370320;27;20030;-77
2023/09/25 07:20:06;;;;;;;6.55;3.20;;;;;;;13.68;73.63;101994.28;5370403;27;20106;-78
2023/09/25 07:22:37;;;;;;;6.00;2.75;;;;;;;13.85;71.37;101991.56;5370158;27;20480;-78
2023/09/25 07:25:09;;;;;;;5.77;2.50;;;;;;;13.95;71.48;101998.47;5369781;27;20113;-79
2023/09/25 07:27:40;;;;;;;6.50;2.77;;;;;;;14.13;70.90;102001.84;5370048;27;20453;-78
2023/09/25 07:30:12;;;;;;;6.87;2.50;;;;;;;14.34;70.20;101998.16;5370104;27;20117;-79
2023/09/25 07:32:43;;;;;;;8.13;3.13;;;;;;;14.49;69.43;101991.91;5370351;27;20545;-78
2023/09/25 07:35:15;;;;;;;7.57;2.77;;;;;;;14.58;67.82;101990.06;5369980;27;20161;-77
2023/09/25 07:37:47;;;;;;;7.53;2.80;;;;;;;14.70;67.62;101993.47;5369750;27;20535;-78
2023/09/25 07:40:19;;;;;;;4.43;2.40;;;;;;;14.76;66.14;101986.41;5369742;27;20080;-79
2023/09/25 07:42:50;;;;;;;4.33;2.23;;;;;;;14.86;66.45;101997.69;5370597;27;20062;-77
2023/09/25 07:45:25;;;;;;;7.07;2.97;;;;;;;14.93;65.50;101993.22;5369467;27;20027;-78
2023/09/25 07:47:57;;;;;;;5.47;2.20;;;;;;;15.00;65.53;101986.16;5369701;27;20041;-77
2023/09/25 07:50:29;;;;;;;5.72;2.60;;;;;;;15.18;65.92;101991.16;5369483;27;20030;-78
2023/09/25 07:53:00;;;;;;;5.17;2.13;;;;;;;15.24;64.15;101985.81;5350723;27;20038;-76
2023/09/25 07:55:32;;;;;;;11.98;2.80;;;;;;;15.31;63.91;101981.34;5350905;27;20078;-78
2023/09/25 07:58:04;;;;;;;5.93;2.67;;;;;;;15.39;63.20;101991.78;5369904;27;20063;-76
2023/09/25 08:00:39;;;;;;;4.47;2.30;;;;;;;15.42;63.42;101991.72;5369007;27;20154;-78
2023/09/25 08:03:15;;;;;;;5.00;2.60;;;;;;;15.41;63.26;101992.63;5350764;27;20022;-77
2023/09/25 08:05:46;;;;;;;3.40;2.45;;;;;;;15.50;62.50;101995.13;5369209;27;20070;-80
2023/09/25 08:08:18;;;;;;;5.53;2.00;;;;;;;15.60;63.18;102003.72;5369124;27;20073;-78
2023/09/25 08:10:49;;;;;;;4.67;2.50;;;;;;;15.63;62.18;101993.19;5316137;27;20027;-78
2023/09/25 08:13:20;;;;;;;6.63;2.60;;;;;;;15.63;61.81;101995.81;5352964;27;20027;-79
2023/09/25 08:15:52;;;;;;;7.60;2.43;;;;;;;15.72;61.84;101998.31;5370263;27;20023;-77
2023/09/25 08:18:23;;;;;;;8.83;2.80;;;;;;;15.72;61.42;101992.19;5369765;27;20113;-78
2023/09/25 08:20:55;;;;;;;6.23;2.90;;;;;;;15.79;61.63;102004.38;5370574;27;20552;-79
2023/09/25 08:23:27;;;;;;;7.17;2.93;;;;;;;15.78;62.92;102002.66;5370248;27;20031;-78
2023/09/25 08:25:58;;;;;;;4.05;2.35;;;;;;;15.85;63.22;102001.66;5374939;27;20105;-80
2023/09/25 08:28:29;;;;;;;4.47;2.30;;;;;;;15.94;61.96;102000.63;5377767;27;20026;-78
2023/09/25 08:31:01;;;;;;;4.17;2.40;;;;;;;15.98;60.99;101997.94;5375486;27;20046;-78
2023/09/25 08:33:32;;;;;;;6.20;2.33;;;;;;;16.10;61.63;101996.00;5373980;27;20473;-78
2023/09/25 08:36:03;;;;;;;10.67;2.70;;;;;;;16.23;61.45;101997.56;5372826;27;20019;-78
2023/09/25 08:38:35;;;;;;;7.93;2.70;;;;;;;16.37;59.86;101990.28;5369785;27;20030;-78
2023/09/25 08:41:06;;;;;;;4.17;2.80;;;;;;;16.62;59.81;101981.94;5368420;27;20106;-77
2023/09/25 08:43:42;;;;;;;4.47;2.40;;;;;;;16.83;59.04;101980.63;5368637;27;20027;-80
2023/09/25 08:46:14;;;;;;;7.30;2.53;;;;;;;17.01;58.38;101979.44;5350061;27;20019;-77
2023/09/25 08:48:46;;;;;;;6.43;2.40;;;;;;;17.37;57.29;101973.41;5369771;27;20037;-80
2023/09/25 08:51:20;;;;;;;10.18;2.40;;;;;;;17.66;57.67;101978.91;5380260;27;20135;-77
2023/09/25 08:53:52;;;;;;;3.42;2.47;;;;;;;17.97;55.75;101975.53;5382130;27;20023;-78
2023/09/25 08:56:24;;;;;;;4.30;2.30;;;;;;;18.28;55.35;101973.91;5372119;27;20466;-78
2023/09/25 08:58:59;;;;;;;5.00;2.67;;;;;;;18.51;55.81;101976.78;5369339;27;20458;-79
2023/09/25 09:01:30;;;;;;;5.43;2.40;;;;;;;18.81;54.09;101973.34;5368412;27;20366;-78
2023/09/25 09:04:02;;;;;;;4.30;2.30;;;;;;;18.99;53.01;101974.63;5369214;27;20082;-79
2023/09/25 09:06:33;;;;;;;9.13;2.57;;;;;;;19.03;52.84;101977.13;5368402;27;20026;-79
2023/09/25 09:09:07;;;;;;;6.33;3.00;;;;;;;19.30;51.50;101983.38;5350542;27;20027;-81
2023/09/25 09:11:48;;;;;;;5.18;2.35;;;;;;;19.48;50.84;101976.66;5368720;27;20027;-79
2023/09/25 09:14:38;;;;;;;4.72;2.33;;;;;;;19.60;50.90;101982.47;5368391;27;20018;-79
2023/09/25 09:17:11;;;;;;;5.07;2.40;;;;;;;19.28;51.21;101984.34;5368617;27;20117;-78
2023/09/25 09:19:45;;;;;;;6.70;2.33;;;;;;;19.30;51.07;101970.16;5368064;27;20037;-77
2023/09/25 09:22:18;;;;;;;5.28;2.50;;;;;;;19.45;51.98;101975.91;5369535;27;20034;-78
2023/09/25 09:24:53;;;;;;;6.72;2.30;;;;;;;19.76;49.82;101974.94;5372744;27;20031;-78
2023/09/25 09:27:26;;;;;;;5.88;2.30;;;;;;;19.72;49.87;101978.56;5372690;27;20092;-78
2023/09/25 09:29:57;;;;;;;5.95;2.65;;;;;;;19.36;50.30;101981.47;5354516;27;20074;-78
2023/09/25 09:32:28;;;;;;;4.17;2.50;;;;;;;19.42;50.78;101984.78;5354763;27;20068;-77
2023/09/25 09:35:05;;;;;;;5.57;2.13;;;;;;;19.40;52.63;101975.16;5373324;27;20034;-77
2023/09/25 09:37:37;;;;;;;5.55;2.60;;;;;;;19.33;51.69;101974.47;5356568;27;20042;-79
2023/09/25 09:40:11;;;;;;;7.13;3.10;;;;;;;19.47;51.35;101976.72;5376793;27;20066;-76
2023/09/25 09:42:43;;;;;;;7.95;2.47;;;;;;;19.59;51.34;101978.09;5370817;27;20018;-80
2023/09/25 09:45:15;;;;;;;7.40;2.95;;;;;;;20.29;49.79;101974.06;5392627;27;20034;-78
2023/09/25 09:47:53;;;;;;;6.00;3.00;;;;;;;20.79;49.57;101978.53;5387788;27;20031;-78
2023/09/25 09:50:28;;;;;;;5.20;2.10;;;;;;;21.23;49.34;101982.13;5389179;27;20422;-78
2023/09/25 09:53:00;;;;;;;6.03;2.47;;;;;;;21.48;47.29;101989.19;5364371;27;20031;-77
2023/09/25 09:55:34;;;;;;;6.35;2.13;;;;;;;21.59;47.43;101988.72;5377640;27;20026;-78
2023/09/25 09:58:06;;;;;;;4.15;2.35;;;;;;;21.37;46.26;101986.91;5360068;27;20043;-78
2023/09/25 10:00:41;;;;;;;5.17;2.30;;;;;;;21.17;47.10;101990.34;5378858;27;20371;-77
2023/09/25 10:03:13;;;;;;;4.88;2.33;;;;;;;21.24;48.57;101991.81;5359534;27;20075;-77
2023/09/25 10:05:45;;;;;;;7.53;2.63;;;;;;;21.61;48.37;101998.38;5375882;27;20034;-81
2023/09/25 10:08:17;;;;;;;3.80;2.20;;;;;;;21.88;46.49;102002.59;5372974;27;20034;-79
2023/09/25 10:10:51;;;;;;;4.45;2.25;;;;;;;22.10;46.00;101994.63;5372040;27;20024;-78
2023/09/25 10:13:29;;;;;;;4.10;2.13;;;;;;;21.99;44.60;101987.09;5372187;27;20436;-77
2023/09/25 10:16:01;;;;;;;4.38;2.10;;;;;;;22.51;49.21;101990.22;5371631;27;20023;-78
2023/09/25 10:18:33;;;;;;;4.10;2.05;;;;;;;22.65;44.06;101988.75;5371747;27;20357;-75
2023/09/25 10:21:11;;;;;;;6.70;2.03;;;;;;;22.98;44.49;101989.03;5372200;27;20035;-79
2023/09/25 10:23:56;;;;;;;5.55;2.10;;;;;;;23.18;43.85;101981.94;5372008;27;20478;-77
2023/09/25 10:26:33;;;;;;;5.55;1.77;;;;;;;23.48;43.40;101979.63;5371313;27;20033;-78
2023/09/25 10:29:15;;;;;;;5.53;2.35;;;;;;;23.61;42.53;101986.06;5371631;27;20077;-77
2023/09/25 10:31:47;;;;;;;3.40;1.95;;;;;;;23.88;40.78;101987.47;5371419;27;20027;-79
2023/09/25 10:34:22;;;;;;;2.97;2.05;;;;;;;23.63;40.22;101989.50;5370600;27;20041;-77
2023/09/25 10:37:00;;;;;;;5.35;1.88;;;;;;;23.75;42.15;101992.53;5371049;27;20514;-78
2023/09/25 10:39:31;;;;;;;4.90;2.00;;;;;;;23.83;41.01;101985.91;5371522;27;20362;-79
2023/09/25 10:42:07;;;;;;;6.38;2.53;;;;;;;24.01;40.81;101993.91;5371226;27;20027;-78
2023/09/25 10:44:39;;;;;;;8.13;2.47;;;;;;;23.93;39.73;101988.13;5371323;27;20365;-78
2023/09/25 10:47:11;;;;;;;6.68;2.47;;;;;;;23.81;40.33;101984.22;5371311;27;20027;-78
2023/09/25 10:49:42;;;;;;;3.70;2.08;;;;;;;24.33;40.62;101983.44;5370964;27;20087;-79
2023/09/25 10:52:16;;;;;;;6.15;2.13;;;;;;;24.83;38.62;101979.91;5352792;27;20132;-79
2023/09/25 10:54:48;;;;;;;3.30;1.90;;;;;;;25.07;39.00;101980.38;5370737;27;20027;-80
2023/09/25 10:57:19;;;;;;;4.85;2.00;;;;;;;24.77;38.23;101976.72;5370878;27;20482;-79
2023/09/25 10:59:51;;;;;;;3.25;2.00;;;;;;;24.87;38.38;101972.59;5353102;27;20072;-80
2023/09/25 11:02:22;;;;;;;3.37;1.60;;;;;;;25.31;37.03;101971.97;5371745;27;20026;-77
2023/09/25 11:04:53;;;;;;;5.00;1.87;;;;;;;25.50;37.57;101973.59;5352189;27;20272;-76
2023/09/25 11:07:26;;;;;;;5.32;2.00;;;;;;;25.87;37.23;101980.31;5371534;27;20035;-78
2023/09/25 11:09:57;;;;;;;2.88;1.80;;;;;;;25.70;37.81;101989.34;5352926;27;20035;-79
2023/09/25 11:12:30;;;;;;;4.13;2.33;;;;;;;25.82;36.78;101987.75;5352477;27;20034;-77
2023/09/25 11:15:08;;;;;;;3.40;1.90;;;;;;;25.53;36.56;101986.78;5371076;27;20066;-79
2023/09/25 11:17:40;;;;;;;2.97;1.80;;;;;;;25.53;37.08;101997.44;5371753;27;20449;-81
2023/09/25 11:20:19;;;;;;;5.07;2.10;;;;;;;25.65;36.46;101992.28;5372357;27;20039;-79
2023/09/25 11:22:57;;;;;;;6.20;2.30;;;;;;;25.22;37.48;101980.47;5358455;27;20038;-79
2023/09/25 11:25:28;;;;;;;3.45;2.20;;;;;;;26.24;37.50;101994.19;5377521;27;20034;-78
2023/09/25 11:27:59;;;;;;;2.45;1.88;;;;;;;26.98;37.24;101992.38;5371979;27;20053;-81
2023/09/25 11:30:31;;;;;;;4.68;2.25;;;;;;;27.67;34.05;101992.44;5371454;27;20486;-80
2023/09/25 11:33:05;;;;;;;3.25;2.17;;;;;;;28.54;32.26;101988.31;5370877;27;20106;-81
2023/09/25 11:35:38;;;;;;;4.38;1.90;;;;;;;28.01;32.61;101991.09;5370693;27;20038;-80
2023/09/25 11:38:17;;;;;;;3.97;2.20;;;;;;;28.96;32.62;101989.91;5384657;27;20114;-79
2023/09/25 11:40:50;;;;;;;3.97;1.70;;;;;;;28.89;32.00;101994.88;5389987;27;20042;-80
2023/09/25 11:43:24;;;;;;;4.05;2.08;;;;;;;28.82;32.50;101990.91;5381325;27;20023;-79
2023/09/25 11:45:55;;;;;;;4.85;2.03;;;;;;;28.67;31.73;101979.44;5370196;27;20034;-83
2023/09/25 11:48:26;;;;;;;4.93;2.10;;;;;;;29.38;32.01;101988.66;5351847;27;20117;-79